Time;durP1;ratioP1;P1;durP2;ratioP2;P2;SDS_P1;SDS_P2;PMS_P1;PMS_P2;Temp;Humidity;BMP_temperature;BMP_pressure;BME280_temperature;BME280_humidity;BME280_pressure;Samples;Min_cycle;Max_cycle;Signal;HPM_P1;HPM_P2
2023/05/10 00:04:09;;;;;;;0.32;0.20;;;;;;;18.55;100.00;100803.38;10425150;28;20130;-81
2023/05/10 00:09:11;;;;;;;0.28;0.28;;;;;;;19.11;100.00;100796.75;10418896;28;20052;-81
2023/05/10 00:14:13;;;;;;;0.00;0.00;;;;;;;18.66;100.00;100799.81;10416127;28;20151;-81
2023/05/10 00:19:14;;;;;;;1.20;0.45;;;;;;;18.41;100.00;100792.19;10420185;28;20055;-81
2023/05/10 00:24:16;;;;;;;0.52;0.43;;;;;;;18.53;100.00;100786.00;10437663;28;20572;-81
2023/05/10 00:29:19;;;;;;;0.43;0.20;;;;;;;18.85;100.00;100790.06;10420153;28;20041;-81
2023/05/10 00:34:21;;;;;;;0.43;0.20;;;;;;;18.71;100.00;100791.06;10436566;28;20118;-82
2023/05/10 00:39:23;;;;;;;0.95;0.28;;;;;;;18.94;100.00;100784.78;10441581;28;20052;-81
2023/05/10 00:44:25;;;;;;;0.00;0.00;;;;;;;18.38;100.00;100787.03;10434786;28;20061;-80
2023/05/10 00:49:27;;;;;;;0.52;0.30;;;;;;;18.73;100.00;100785.81;10434326;28;20396;-83
2023/05/10 00:54:28;;;;;;;0.88;0.47;;;;;;;18.02;100.00;100782.06;10417384;28;20531;-83
2023/05/10 00:59:30;;;;;;;0.52;0.13;;;;;;;18.32;100.00;100785.31;10432875;28;20049;-82
2023/05/10 01:04:32;;;;;;;0.13;0.08;;;;;;;18.29;100.00;100790.53;10416687;28;20492;-82
2023/05/10 01:09:34;;;;;;;0.45;0.40;;;;;;;18.62;100.00;100788.53;10420249;28;20041;-82
2023/05/10 01:14:36;;;;;;;0.55;0.30;;;;;;;18.67;100.00;100786.75;10433825;28;20045;-82
2023/05/10 01:19:38;;;;;;;0.28;0.28;;;;;;;18.24;100.00;100781.91;10435077;28;20056;-82
2023/05/10 01:25:05;;;;;;;0.43;0.30;;;;;;;18.64;100.00;100784.19;10432499;28;20049;-83
2023/05/10 01:30:32;;;;;;;0.32;0.28;;;;;;;18.42;100.00;100782.66;10426534;28;20140;-82
2023/05/10 01:35:54;;;;;;;0.17;0.17;;;;;;;18.45;100.00;100785.22;10440896;28;20051;-82
2023/05/10 01:41:27;;;;;;;1.08;0.30;;;;;;;18.47;100.00;100783.47;10410953;28;20040;-83
2023/05/10 01:46:39;;;;;;;0.25;0.25;;;;;;;18.49;100.00;100784.31;10409333;28;20045;-83
2023/05/10 01:51:54;;;;;;;0.80;0.60;;;;;;;18.50;100.00;100773.00;10426800;28;20127;-82
2023/05/10 01:57:03;;;;;;;0.10;0.10;;;;;;;18.33;100.00;100780.97;10411181;28;20072;-82
2023/05/10 02:02:06;;;;;;;0.40;0.20;;;;;;;18.38;100.00;100780.06;10430804;28;20052;-83
2023/05/10 02:07:09;;;;;;;0.52;0.47;;;;;;;18.50;100.00;100788.66;10431799;28;20306;-82
2023/05/10 02:12:14;;;;;;;0.98;0.38;;;;;;;18.50;100.00;100788.66;10414199;28;20079;-82
2023/05/10 02:17:16;;;;;;;5.63;1.02;;;;;;;18.54;100.00;100792.97;10433154;28;20447;-82
2023/05/10 02:22:19;;;;;;;0.55;0.20;;;;;;;18.55;100.00;100792.09;10442648;28;20063;-82
2023/05/10 02:27:22;;;;;;;0.85;0.57;;;;;;;18.05;100.00;100792.50;10410851;28;20052;-83
2023/05/10 02:32:26;;;;;;;1.05;0.65;;;;;;;18.68;100.00;100801.53;10412221;28;20051;-83
2023/05/10 02:37:28;;;;;;;1.70;1.33;;;;;;;18.57;100.00;100805.09;10430199;28;20041;-83
2023/05/10 02:42:34;;;;;;;0.80;0.80;;;;;;;18.80;100.00;100802.31;10434352;28;20041;-82
2023/05/10 02:47:38;;;;;;;2.22;0.75;;;;;;;18.83;100.00;100800.53;10437668;28;20534;-83
2023/05/10 02:52:47;;;;;;;2.50;1.08;;;;;;;18.83;100.00;100795.31;10431129;28;20049;-82
2023/05/10 02:57:59;;;;;;;1.55;1.02;;;;;;;18.67;100.00;100805.00;10446556;28;20048;-83
2023/05/10 03:03:01;;;;;;;4.55;1.25;;;;;;;18.70;100.00;100801.50;10431359;28;20392;-82
2023/05/10 03:08:04;;;;;;;0.28;0.28;;;;;;;19.21;100.00;100798.41;10420446;28;20450;-83
2023/05/10 03:13:50;;;;;;;1.65;0.88;;;;;;;19.26;100.00;100801.81;10421504;28;20531;-83
2023/05/10 03:19:17;;;;;;;1.48;0.98;;;;;;;18.69;100.00;100805.88;10422628;28;20057;-82
2023/05/10 03:24:22;;;;;;;4.43;1.55;;;;;;;19.05;100.00;100807.28;10407635;28;20059;-83
2023/05/10 03:29:26;;;;;;;3.42;1.25;;;;;;;18.39;100.00;100814.84;10440365;28;20052;-83
2023/05/10 03:34:30;;;;;;;0.93;0.90;;;;;;;18.46;100.00;100813.03;10428170;28;20052;-82
2023/05/10 03:39:32;;;;;;;3.20;1.08;;;;;;;18.24;100.00;100816.66;10421666;28;20052;-82
2023/05/10 03:44:38;;;;;;;4.28;1.73;;;;;;;18.21;100.00;100818.41;10420312;28;20067;-80
2023/05/10 03:49:40;;;;;;;1.88;1.75;;;;;;;18.41;100.00;100825.25;10435271;28;20098;-83
2023/05/10 03:54:42;;;;;;;5.65;1.95;;;;;;;18.45;100.00;100832.16;10417961;28;20060;-82
2023/05/10 03:59:45;;;;;;;1.08;0.85;;;;;;;18.26;100.00;100832.31;10419616;28;20057;-83
2023/05/10 04:04:48;;;;;;;5.10;1.55;;;;;;;18.53;100.00;100840.78;10436756;28;20041;-82
2023/05/10 04:09:49;;;;;;;1.63;1.23;;;;;;;18.56;100.00;100840.78;10420495;28;20045;-82
2023/05/10 04:14:51;;;;;;;3.60;2.33;;;;;;;17.87;100.00;100832.50;10455250;28;20057;-82
2023/05/10 04:19:54;;;;;;;1.27;1.05;;;;;;;18.32;100.00;100834.88;10454217;28;20037;-82
2023/05/10 04:24:58;;;;;;;4.90;1.77;;;;;;;18.60;100.00;100839.88;10436690;28;20131;-82
2023/05/10 04:29:59;;;;;;;2.50;1.85;;;;;;;18.17;100.00;100842.81;10453321;28;20052;-82
2023/05/10 04:35:03;;;;;;;2.85;1.95;;;;;;;18.27;100.00;100841.88;10436971;28;20056;-81
2023/05/10 04:40:06;;;;;;;2.25;1.00;;;;;;;18.26;100.00;100837.53;10417739;28;20342;-81
2023/05/10 04:45:09;;;;;;;5.90;1.88;;;;;;;17.87;100.00;100860.31;10435527;28;20436;-81
2023/05/10 04:50:11;;;;;;;4.38;2.30;;;;;;;17.56;100.00;100866.53;10435975;28;20052;-82
2023/05/10 04:55:13;;;;;;;2.17;1.50;;;;;;;18.22;100.00;100867.09;10435413;28;20080;-83
2023/05/10 05:00:16;;;;;;;3.25;2.28;;;;;;;17.93;100.00;100881.13;10432989;28;20061;-83
2023/05/10 05:05:18;;;;;;;2.75;1.77;;;;;;;17.59;100.00;100886.50;10452471;28;20107;-83
2023/05/10 05:10:20;;;;;;;5.20;2.05;;;;;;;17.84;100.00;100881.16;10449802;28;20057;-83
2023/05/10 05:15:22;;;;;;;2.95;1.70;;;;;;;17.94;100.00;100884.63;10451827;28;20053;-83
2023/05/10 05:20:23;;;;;;;10.48;5.28;;;;;;;17.74;100.00;100896.88;10432942;28;20529;-82
2023/05/10 05:25:25;;;;;;;4.00;2.55;;;;;;;17.98;100.00;100884.63;10448068;28;20041;-84
2023/05/10 05:30:27;;;;;;;12.05;1.58;;;;;;;17.83;100.00;100895.09;10444296;28;20063;-82
2023/05/10 05:35:28;;;;;;;4.15;1.65;;;;;;;18.53;100.00;100883.41;10444427;28;20064;-81
2023/05/10 05:40:30;;;;;;;1.65;1.08;;;;;;;18.38;100.00;100899.16;10434416;28;20555;-84
2023/05/10 05:45:32;;;;;;;1.48;1.23;;;;;;;18.56;100.00;100887.75;10450248;28;20095;-83
2023/05/10 05:50:33;;;;;;;2.38;1.40;;;;;;;18.54;100.00;100879.06;10432114;28;20041;-83
2023/05/10 05:55:40;;;;;;;4.05;2.75;;;;;;;18.42;100.00;100892.19;10432320;28;20117;-83
2023/05/10 06:00:42;;;;;;;6.47;2.35;;;;;;;18.44;100.00;100890.41;10415565;28;20072;-82
2023/05/10 06:05:44;;;;;;;2.42;1.85;;;;;;;18.38;100.00;100894.81;10419022;28;20041;-83
2023/05/10 06:10:45;;;;;;;1.40;1.30;;;;;;;18.74;100.00;100906.72;10449737;28;20060;-83
2023/05/10 06:15:47;;;;;;;8.35;2.13;;;;;;;18.82;100.00;100899.69;10434979;28;20041;-84
2023/05/10 06:20:50;;;;;;;2.03;1.65;;;;;;;18.60;100.00;100904.25;10430782;28;20057;-83
2023/05/10 06:25:52;;;;;;;4.28;1.75;;;;;;;18.19;100.00;100908.84;10446223;28;20052;-83
2023/05/10 06:30:53;;;;;;;2.67;2.45;;;;;;;18.18;100.00;100907.13;10448459;28;20526;-83
2023/05/10 06:35:55;;;;;;;8.32;2.03;;;;;;;18.50;100.00;100919.09;10425337;28;20044;-83
2023/05/10 06:40:57;;;;;;;4.72;1.98;;;;;;;18.47;100.00;100926.94;10425231;28;20053;-83
2023/05/10 06:45:59;;;;;;;3.70;2.42;;;;;;;18.15;100.00;100922.75;10448565;28;20053;-82
2023/05/10 06:51:00;;;;;;;2.47;1.55;;;;;;;18.12;100.00;100926.25;10415748;28;20049;-82
2023/05/10 06:56:03;;;;;;;3.80;2.63;;;;;;;18.54;100.00;100936.44;10424859;28;20041;-81
2023/05/10 07:01:05;;;;;;;4.05;1.75;;;;;;;18.63;100.00;100933.78;10420326;28;20428;-82
2023/05/10 07:06:07;;;;;;;2.55;0.93;;;;;;;18.88;100.00;100933.56;10428886;28;20047;-82
2023/05/10 07:11:16;;;;;;;6.80;2.30;;;;;;;19.03;100.00;100930.88;10447795;28;20094;-81
2023/05/10 07:16:18;;;;;;;9.35;2.00;;;;;;;18.87;100.00;100939.69;10428871;28;20037;-82
2023/05/10 07:21:20;;;;;;;7.20;1.85;;;;;;;18.57;100.00;100952.09;10411263;28;20041;-82
2023/05/10 07:26:22;;;;;;;2.58;1.85;;;;;;;18.76;100.00;100965.00;10441526;28;20041;-82
2023/05/10 07:31:24;;;;;;;6.85;1.88;;;;;;;18.50;100.00;100971.28;10428442;28;20755;-83
2023/05/10 07:36:26;;;;;;;2.58;1.85;;;;;;;18.53;100.00;100972.13;10430500;28;20045;-83
2023/05/10 07:41:27;;;;;;;2.95;1.45;;;;;;;18.20;100.00;100967.94;10426449;28;20087;-82
2023/05/10 07:46:29;;;;;;;7.00;2.30;;;;;;;18.21;100.00;100980.09;10434153;28;20060;-82
2023/05/10 07:51:31;;;;;;;2.55;1.75;;;;;;;18.31;100.00;100988.75;10428428;28;20126;-82
2023/05/10 07:56:34;;;;;;;6.93;2.17;;;;;;;17.83;100.00;100988.91;10406876;28;20607;-83
2023/05/10 08:01:38;;;;;;;3.67;2.20;;;;;;;17.76;100.00;100988.91;10430526;28;20053;-83
2023/05/10 08:06:40;;;;;;;1.48;1.23;;;;;;;18.17;100.00;100994.88;10418324;28;20484;-84
2023/05/10 08:11:42;;;;;;;1.98;1.02;;;;;;;18.17;100.00;100996.63;10452697;28;20408;-84
2023/05/10 08:16:43;;;;;;;3.72;1.17;;;;;;;18.35;100.00;100995.69;10452081;28;20068;-83
2023/05/10 08:21:45;;;;;;;12.10;2.45;;;;;;;18.56;100.00;100992.09;10439048;28;20056;-79
2023/05/10 08:26:47;;;;;;;8.82;1.80;;;;;;;19.14;100.00;100989.97;10440343;28;20049;-79
2023/05/10 08:31:49;;;;;;;1.73;1.15;;;;;;;19.15;100.00;100997.78;10439754;28;20119;-79
2023/05/10 08:36:51;;;;;;;1.77;1.25;;;;;;;19.00;100.00;101013.56;10439221;28;20132;-80
2023/05/10 08:41:58;;;;;;;3.50;2.03;;;;;;;18.35;100.00;101006.13;10439172;28;20044;-78
2023/05/10 08:47:05;;;;;;;3.00;1.63;;;;;;;18.66;100.00;101014.63;10439845;28;20041;-79
2023/05/10 08:52:07;;;;;;;2.65;2.10;;;;;;;19.36;100.00;101016.75;10423782;28;20393;-80
2023/05/10 08:57:10;;;;;;;6.68;1.55;;;;;;;19.75;100.00;101030.34;10442634;28;20073;-80
2023/05/10 09:02:13;;;;;;;3.20;1.65;;;;;;;19.17;100.00;101032.59;10415759;28;20053;-79
2023/05/10 09:07:19;;;;;;;5.07;2.30;;;;;;;19.59;100.00;101033.97;10438923;28;20068;-79
2023/05/10 09:12:22;;;;;;;6.80;3.45;;;;;;;20.05;100.00;101043.16;10438652;28;20049;-79
2023/05/10 09:17:25;;;;;;;3.05;1.88;;;;;;;19.82;100.00;101046.84;10451133;28;20369;-80
2023/05/10 09:22:27;;;;;;;3.75;1.88;;;;;;;19.72;100.00;101051.31;10436916;28;20056;-79
2023/05/10 09:27:28;;;;;;;5.97;1.60;;;;;;;20.18;100.00;101046.50;10437619;28;20045;-80
2023/05/10 09:32:44;;;;;;;2.58;1.52;;;;;;;19.63;100.00;101052.22;10418208;28;20052;-80
2023/05/10 09:37:51;;;;;;;2.40;1.40;;;;;;;19.23;100.00;101068.28;10433707;28;20068;-80
2023/05/10 09:42:55;;;;;;;4.35;1.98;;;;;;;19.61;100.00;101064.47;10453615;28;20455;-79
2023/05/10 09:47:59;;;;;;;3.97;1.67;;;;;;;19.93;100.00;101065.91;10436039;28;20041;-80
2023/05/10 09:53:03;;;;;;;4.60;1.90;;;;;;;20.26;100.00;101070.78;10421770;28;20511;-79
2023/05/10 09:58:09;;;;;;;3.50;1.60;;;;;;;20.42;100.00;101074.09;10436372;28;20043;-80
2023/05/10 10:03:16;;;;;;;3.95;1.17;;;;;;;20.29;100.00;101068.16;10427878;28;20079;-80
2023/05/10 10:08:19;;;;;;;1.08;0.70;;;;;;;19.37;100.00;101077.75;10435809;28;20380;-80
2023/05/10 10:13:20;;;;;;;3.42;1.85;;;;;;;19.03;100.00;101084.91;10447234;28;20053;-78
2023/05/10 10:18:26;;;;;;;2.65;2.13;;;;;;;18.41;100.00;101092.16;10421807;28;20048;-80
2023/05/10 10:23:28;;;;;;;1.42;1.33;;;;;;;18.86;100.00;101094.59;10419668;28;20104;-78
2023/05/10 10:28:35;;;;;;;5.15;1.58;;;;;;;19.10;100.00;101092.75;10411550;28;20524;-78
2023/05/10 10:33:56;;;;;;;2.95;1.40;;;;;;;19.81;100.00;101100.00;10415481;28;20504;-78
2023/05/10 10:39:02;;;;;;;4.85;3.38;;;;;;;19.36;100.00;101083.84;10451731;28;20477;-79
2023/05/10 10:44:26;;;;;;;4.20;2.00;;;;;;;18.92;100.00;101086.75;10431676;28;20048;-78
2023/05/10 10:49:31;;;;;;;4.43;0.82;;;;;;;19.68;100.00;101093.16;10434931;28;20095;-79
2023/05/10 10:54:33;;;;;;;2.25;1.50;;;;;;;19.86;100.00;101082.56;10428226;28;20401;-79
2023/05/10 10:59:35;;;;;;;6.28;1.73;;;;;;;20.35;100.00;101093.38;10433795;28;20040;-79
2023/05/10 11:04:46;;;;;;;1.25;0.80;;;;;;;20.67;100.00;101086.84;10436425;28;20555;-78
2023/05/10 11:09:48;;;;;;;1.05;0.80;;;;;;;19.53;100.00;101097.63;10433056;28;20052;-79
2023/05/10 11:14:51;;;;;;;2.00;1.38;;;;;;;20.42;100.00;101093.28;10459963;28;20099;-80
2023/05/10 11:20:24;;;;;;;1.33;0.98;;;;;;;21.48;100.00;101090.03;10423769;28;20132;-79
2023/05/10 11:25:27;;;;;;;2.28;0.45;;;;;;;20.15;100.00;101102.28;10432437;28;20049;-80
2023/05/10 11:30:30;;;;;;;0.68;0.55;;;;;;;20.21;100.00;101101.38;10442403;28;20159;-80
2023/05/10 11:35:39;;;;;;;0.60;0.60;;;;;;;21.02;100.00;101101.28;10425951;28;20045;-79
2023/05/10 11:40:44;;;;;;;4.95;1.08;;;;;;;21.44;100.00;101098.88;10429484;28;20041;-80
2023/05/10 11:45:49;;;;;;;0.70;0.50;;;;;;;20.82;100.00;101105.00;10441134;28;20107;-78
2023/05/10 11:50:51;;;;;;;5.82;1.33;;;;;;;19.77;100.00;101111.38;10442687;28;20112;-79
2023/05/10 11:55:53;;;;;;;3.05;0.88;;;;;;;20.22;100.00;101124.88;10442678;28;20132;-80
2023/05/10 12:00:55;;;;;;;0.75;0.40;;;;;;;21.23;100.00;101116.66;10458735;28;20037;-79
2023/05/10 12:05:57;;;;;;;0.88;0.63;;;;;;;21.37;100.00;101119.06;10457994;28;20496;-79
2023/05/10 12:11:13;;;;;;;0.68;0.38;;;;;;;21.46;100.00;101125.94;10426106;28;20542;-82
2023/05/10 12:16:23;;;;;;;2.75;1.23;;;;;;;20.83;100.00;101122.47;10436138;28;20032;-82
2023/05/10 12:21:27;;;;;;;0.77;0.30;;;;;;;21.01;100.00;101133.59;10434423;28;20106;-84
2023/05/10 12:26:32;;;;;;;0.80;0.80;;;;;;;23.35;100.00;101122.25;10425766;28;20049;-84
2023/05/10 12:31:52;;;;;;;1.05;0.82;;;;;;;22.39;100.00;101131.34;10452129;28;20068;-84
2023/05/10 12:36:54;;;;;;;0.85;0.77;;;;;;;22.46;100.00;101136.44;10433878;28;20171;-83
2023/05/10 12:41:56;;;;;;;0.63;0.50;;;;;;;22.40;100.00;101139.19;10429533;28;20098;-83
2023/05/10 12:46:58;;;;;;;0.45;0.45;;;;;;;22.29;100.00;101138.50;10427030;28;20068;-85
2023/05/10 12:52:01;;;;;;;0.93;0.80;;;;;;;22.41;100.00;101145.31;10418511;28;20044;-83
2023/05/10 12:57:03;;;;;;;0.15;0.15;;;;;;;20.99;100.00;101148.44;10434278;28;20144;-85
2023/05/10 13:02:06;;;;;;;0.52;0.50;;;;;;;21.84;100.00;101148.06;10431338;28;20052;-83
2023/05/10 13:07:07;;;;;;;1.17;0.55;;;;;;;21.18;100.00;101147.31;10443848;28;20124;-83
2023/05/10 13:12:09;;;;;;;0.20;0.20;;;;;;;21.52;100.00;101161.66;10418874;28;20163;-83
2023/05/10 13:17:11;;;;;;;0.20;0.20;;;;;;;21.66;100.00;101157.09;10433596;28;20415;-82
2023/05/10 13:22:13;;;;;;;0.85;0.55;;;;;;;21.74;100.00;101154.34;10418987;28;20076;-82
2023/05/10 13:27:16;;;;;;;0.00;0.00;;;;;;;21.97;100.00;101145.22;10432160;28;20094;-82
2023/05/10 13:32:19;;;;;;;0.10;0.00;;;;;;;21.33;100.00;101163.69;10421295;28;20064;-82
2023/05/10 13:37:21;;;;;;;0.17;0.17;;;;;;;21.69;100.00;101156.19;10412131;28;20041;-82
2023/05/10 13:42:23;;;;;;;0.57;0.40;;;;;;;22.36;100.00;101155.88;10420201;28;20563;-82
2023/05/10 13:47:25;;;;;;;0.50;0.50;;;;;;;24.00;100.00;101144.38;10436493;28;20473;-83
2023/05/10 13:52:26;;;;;;;0.50;0.40;;;;;;;22.92;100.00;101142.50;10431498;28;20060;-82
2023/05/10 13:57:28;;;;;;;0.65;0.50;;;;;;;23.50;100.00;101146.44;10436033;28;20053;-83
2023/05/10 14:02:30;;;;;;;0.45;0.20;;;;;;;23.88;100.00;101140.25;10414105;28;20140;-83
2023/05/10 14:07:32;;;;;;;6.35;1.20;;;;;;;23.58;100.00;101142.75;10423342;28;20045;-83
2023/05/10 14:12:33;;;;;;;0.82;0.50;;;;;;;24.09;100.00;101132.72;10420926;28;20059;-85
2023/05/10 14:17:35;;;;;;;0.52;0.43;;;;;;;23.04;100.00;101146.63;10448848;28;20049;-83
2023/05/10 14:22:36;;;;;;;2.10;0.85;;;;;;;22.30;100.00;101148.97;10437402;28;20095;-83
2023/05/10 14:27:38;;;;;;;0.20;0.17;;;;;;;22.21;100.00;101141.25;10431222;28;20118;-83
2023/05/10 14:32:40;;;;;;;0.25;0.13;;;;;;;22.89;100.00;101146.94;10431721;28;20087;-83
2023/05/10 14:37:41;;;;;;;0.55;0.38;;;;;;;22.73;100.00;101144.66;10451628;28;20053;-83
2023/05/10 14:42:43;;;;;;;0.30;0.20;;;;;;;22.29;100.00;101147.22;10422915;28;20079;-82
2023/05/10 14:47:45;;;;;;;0.05;0.05;;;;;;;21.85;100.00;101147.16;10418411;28;20138;-83
2023/05/10 14:52:46;;;;;;;0.30;0.28;;;;;;;21.94;100.00;101153.13;10413976;28;20053;-82
2023/05/10 14:57:50;;;;;;;0.77;0.77;;;;;;;22.42;100.00;101147.91;10430626;28;20040;-84
2023/05/10 15:02:51;;;;;;;1.25;0.63;;;;;;;22.24;100.00;101156.06;10438326;28;20240;-84
2023/05/10 15:07:53;;;;;;;0.10;0.10;;;;;;;21.75;100.00;101153.44;10414932;28;20084;-83
2023/05/10 15:12:55;;;;;;;0.43;0.40;;;;;;;22.97;100.00;101158.16;10419319;28;20048;-82
2023/05/10 15:17:56;;;;;;;0.25;0.25;;;;;;;23.18;98.93;101154.19;10417481;28;20045;-82
2023/05/10 15:22:58;;;;;;;0.80;0.22;;;;;;;23.01;98.91;101151.94;10449979;28;20041;-83
2023/05/10 15:27:59;;;;;;;0.20;0.10;;;;;;;22.29;100.00;101162.13;10428578;28;20045;-83
2023/05/10 15:33:01;;;;;;;0.20;0.20;;;;;;;22.90;100.00;101161.78;10434302;28;20061;-83
2023/05/10 15:38:03;;;;;;;0.50;0.20;;;;;;;22.27;100.00;101174.41;10439955;28;20037;-82
2023/05/10 15:43:05;;;;;;;0.38;0.25;;;;;;;21.34;100.00;101178.50;10414748;28;20136;-83
2023/05/10 15:48:06;;;;;;;0.95;0.73;;;;;;;20.57;100.00;101183.84;10431082;28;20049;-83
2023/05/10 15:53:08;;;;;;;0.60;0.60;;;;;;;20.40;100.00;101202.31;10435071;28;20094;-83
2023/05/10 15:58:10;;;;;;;3.35;0.30;;;;;;;20.86;100.00;101206.22;10431090;28;20041;-82
2023/05/10 16:03:12;;;;;;;1.13;0.75;;;;;;;20.46;100.00;101214.47;10444826;28;20044;-83
2023/05/10 16:08:14;;;;;;;0.22;0.22;;;;;;;19.49;100.00;101222.22;10435346;28;20120;-84
2023/05/10 16:13:16;;;;;;;0.60;0.47;;;;;;;19.71;100.00;101231.66;10434654;28;20140;-89
2023/05/10 16:18:18;;;;;;;0.40;0.30;;;;;;;18.61;100.00;101234.75;10441391;28;20037;-87
2023/05/10 16:23:19;;;;;;;0.28;0.10;;;;;;;19.01;100.00;101232.91;10411694;28;20607;-87
2023/05/10 16:28:21;;;;;;;0.17;0.17;;;;;;;19.03;100.00;101238.97;10421085;28;20055;-84
2023/05/10 16:33:23;;;;;;;0.63;0.40;;;;;;;18.82;100.00;101244.25;10416798;28;20550;-84
2023/05/10 16:38:25;;;;;;;1.80;0.70;;;;;;;18.82;100.00;101249.47;10420663;28;20403;-85
2023/05/10 16:43:27;;;;;;;0.63;0.57;;;;;;;18.45;100.00;101260.84;10448727;28;20053;-85
2023/05/10 16:48:28;;;;;;;1.75;0.50;;;;;;;19.20;100.00;101251.09;10420139;28;20411;-86
2023/05/10 16:53:30;;;;;;;0.85;0.52;;;;;;;19.25;100.00;101262.38;10430792;28;20118;-85
2023/05/10 16:58:32;;;;;;;0.28;0.13;;;;;;;19.71;100.00;101260.41;10417594;28;20447;-84
2023/05/10 17:03:34;;;;;;;0.20;0.20;;;;;;;20.07;100.00;101261.03;10437227;28;20049;-84
2023/05/10 17:08:36;;;;;;;0.43;0.22;;;;;;;19.71;100.00;101268.25;10419131;28;20041;-84
2023/05/10 17:13:38;;;;;;;1.52;0.55;;;;;;;19.20;100.00;101272.00;10435483;28;20040;-84
2023/05/10 17:18:40;;;;;;;0.70;0.32;;;;;;;19.34;100.00;101274.56;10430641;28;20375;-84
2023/05/10 17:23:42;;;;;;;0.00;0.00;;;;;;;20.09;100.00;101275.00;10418740;28;20064;-84
2023/05/10 17:28:44;;;;;;;0.03;0.03;;;;;;;19.78;100.00;101277.78;10420933;28;20064;-87
2023/05/10 17:33:45;;;;;;;0.30;0.20;;;;;;;19.63;100.00;101281.38;10433635;28;20048;-86
2023/05/10 17:38:47;;;;;;;0.00;0.00;;;;;;;20.06;100.00;101275.88;10433611;28;20045;-86
2023/05/10 17:43:49;;;;;;;1.40;0.10;;;;;;;19.52;100.00;101276.22;10417046;28;20056;-87
2023/05/10 17:48:51;;;;;;;1.70;0.20;;;;;;;19.77;100.00;101278.69;10430282;28;20575;-86
2023/05/10 17:53:53;;;;;;;1.02;0.45;;;;;;;19.53;100.00;101277.94;10433388;28;20045;-87
2023/05/10 17:58:54;;;;;;;0.13;0.08;;;;;;;19.47;100.00;101275.38;10432656;28;20135;-87
2023/05/10 18:03:56;;;;;;;0.20;0.20;;;;;;;20.25;100.00;101289.69;10433257;28;20414;-87
2023/05/10 18:08:58;;;;;;;0.52;0.20;;;;;;;20.08;100.00;101291.56;10426444;28;20083;-87
2023/05/10 18:13:59;;;;;;;0.35;0.35;;;;;;;20.28;100.00;101294.91;10424939;28;20053;-86
2023/05/10 18:19:01;;;;;;;0.28;0.10;;;;;;;19.77;100.00;101289.16;10421071;28;20049;-87
2023/05/10 18:24:03;;;;;;;0.70;0.47;;;;;;;20.28;100.00;101294.91;10440881;28;20061;-87
2023/05/10 18:29:06;;;;;;;0.20;0.20;;;;;;;20.63;100.00;101303.28;10433899;28;20396;-87
2023/05/10 18:34:07;;;;;;;0.10;0.10;;;;;;;20.19;100.00;101305.44;10432921;28;20124;-86
2023/05/10 18:39:10;;;;;;;0.57;0.40;;;;;;;20.21;100.00;101308.91;10415980;28;20455;-87
2023/05/10 18:44:12;;;;;;;0.50;0.32;;;;;;;20.22;100.00;101310.63;10421934;28;20110;-87
2023/05/10 18:49:14;;;;;;;0.00;0.00;;;;;;;20.21;100.00;101322.00;10434589;28;20053;-84
2023/05/10 18:54:15;;;;;;;0.98;0.17;;;;;;;19.66;100.00;101324.03;10432392;28;20107;-87
2023/05/10 18:59:17;;;;;;;0.20;0.20;;;;;;;19.99;100.00;101325.66;10428223;28;20395;-86
2023/05/10 19:04:19;;;;;;;0.50;0.50;;;;;;;20.42;100.00;101317.47;10409277;28;20064;-85
2023/05/10 19:09:21;;;;;;;0.30;0.22;;;;;;;20.25;100.00;101328.06;10430908;28;20131;-84
2023/05/10 19:14:24;;;;;;;0.03;0.00;;;;;;;19.95;100.00;101330.88;10451316;28;20069;-86
2023/05/10 19:19:26;;;;;;;0.25;0.25;;;;;;;19.89;100.00;101330.94;10427500;28;20049;-86
2023/05/10 19:24:27;;;;;;;0.15;0.10;;;;;;;20.08;100.00;101334.28;10426369;28;20523;-85
2023/05/10 19:29:29;;;;;;;0.00;0.00;;;;;;;20.46;100.00;101337.47;10422007;28;20052;-86
2023/05/10 19:34:31;;;;;;;0.00;0.00;;;;;;;20.60;100.00;101329.53;10427001;28;20045;-86
2023/05/10 19:39:32;;;;;;;0.63;0.63;;;;;;;19.92;100.00;101340.50;10433746;28;20041;-85
2023/05/10 19:44:34;;;;;;;0.93;0.20;;;;;;;20.09;100.00;101335.16;10453825;28;20092;-85
2023/05/10 19:49:36;;;;;;;0.10;0.10;;;;;;;20.09;100.00;101337.75;10438125;28;20103;-86
2023/05/10 19:54:37;;;;;;;0.10;0.10;;;;;;;20.15;100.00;101345.56;10443292;28;20072;-85
2023/05/10 19:59:39;;;;;;;0.20;0.10;;;;;;;19.95;100.00;101348.34;10421119;28;20041;-85
2023/05/10 20:04:41;;;;;;;0.10;0.10;;;;;;;20.11;100.00;101356.94;10420910;28;20048;-87
2023/05/10 20:09:43;;;;;;;0.17;0.13;;;;;;;20.35;100.00;101349.81;10426612;28;20412;-86
2023/05/10 20:14:44;;;;;;;0.57;0.38;;;;;;;19.10;100.00;101361.72;10440211;28;20075;-86
2023/05/10 20:19:46;;;;;;;0.00;0.00;;;;;;;20.03;100.00;101350.88;10445618;28;20040;-86
2023/05/10 20:24:48;;;;;;;0.00;0.00;;;;;;;19.33;100.00;101352.03;10411495;28;20045;-85
2023/05/10 20:29:50;;;;;;;0.22;0.10;;;;;;;19.81;100.00;101359.69;10416667;28;20091;-86
2023/05/10 20:34:52;;;;;;;0.30;0.20;;;;;;;19.34;100.00;101353.78;10419560;28;20057;-86
2023/05/10 20:39:54;;;;;;;1.05;0.47;;;;;;;19.83;100.00;101354.47;10408789;28;20480;-86
2023/05/10 20:44:56;;;;;;;0.50;0.50;;;;;;;19.88;100.00;101357.94;10425910;28;20049;-85
2023/05/10 20:49:58;;;;;;;0.00;0.00;;;;;;;20.21;100.00;101356.00;10411984;28;20044;-83
2023/05/10 20:54:59;;;;;;;0.10;0.10;;;;;;;19.92;100.00;101356.19;10431084;28;20045;-84
2023/05/10 21:00:02;;;;;;;0.10;0.10;;;;;;;19.97;100.00;101365.75;10412048;28;20056;-84
2023/05/10 21:05:04;;;;;;;0.20;0.20;;;;;;;19.75;100.00;101369.31;10432254;28;20443;-82
2023/05/10 21:10:07;;;;;;;0.25;0.15;;;;;;;19.83;100.00;101364.91;10442825;28;20037;-83
2023/05/10 21:15:09;;;;;;;0.10;0.10;;;;;;;19.95;100.00;101367.50;10428589;28;20521;-83
2023/05/10 21:20:11;;;;;;;0.00;0.00;;;;;;;19.59;100.00;101361.53;10425771;28;20040;-83
2023/05/10 21:25:13;;;;;;;0.20;0.20;;;;;;;19.66;100.00;101359.75;10415570;28;20483;-85
2023/05/10 21:30:14;;;;;;;0.10;0.03;;;;;;;19.10;100.00;101372.16;10409826;28;20045;-84
2023/05/10 21:35:17;;;;;;;0.40;0.28;;;;;;;19.02;100.00;101373.00;10415932;28;20080;-84
2023/05/10 21:40:19;;;;;;;0.38;0.28;;;;;;;19.28;100.00;101374.72;10416549;28;20562;-83
2023/05/10 21:45:22;;;;;;;0.17;0.17;;;;;;;19.20;100.00;101366.03;10399940;28;20103;-83
2023/05/10 21:51:00;;;;;;;0.32;0.32;;;;;;;19.52;100.00;101370.28;10403802;28;20029;-83
2023/05/10 21:56:02;;;;;;;0.65;0.30;;;;;;;19.69;100.00;101369.34;10418399;28;20045;-84
2023/05/10 22:01:04;;;;;;;0.00;0.00;;;;;;;19.18;100.00;101372.97;10428869;28;20509;-82
2023/05/10 22:06:08;;;;;;;0.00;0.00;;;;;;;19.70;100.00;101373.69;10412558;28;20065;-81
2023/05/10 22:11:10;;;;;;;0.00;0.00;;;;;;;19.90;100.00;101368.38;10425388;28;20048;-83
2023/05/10 22:16:11;;;;;;;0.08;0.05;;;;;;;18.79;100.00;101382.59;10410639;28;20045;-84
2023/05/10 22:21:13;;;;;;;0.10;0.10;;;;;;;19.01;100.00;101386.97;10419588;28;20044;-84
2023/05/10 22:26:17;;;;;;;0.20;0.10;;;;;;;19.38;100.00;101385.13;10424738;28;20526;-83
2023/05/10 22:31:19;;;;;;;0.08;0.08;;;;;;;19.70;100.00;101384.13;10433824;28;20056;-83
2023/05/10 22:36:20;;;;;;;0.15;0.15;;;;;;;19.31;100.00;101379.94;10449648;28;20076;-83
2023/05/10 22:41:22;;;;;;;0.52;0.13;;;;;;;19.57;100.00;101381.56;10414728;28;20045;-84
2023/05/10 22:46:24;;;;;;;0.20;0.20;;;;;;;19.71;100.00;101385.88;10426477;28;20494;-83
2023/05/10 22:51:26;;;;;;;0.00;0.00;;;;;;;19.39;100.00;101385.13;10439005;28;20060;-83
2023/05/10 22:56:30;;;;;;;0.28;0.17;;;;;;;19.25;100.00;101382.53;10432862;28;20089;-83
2023/05/10 23:01:32;;;;;;;0.10;0.10;;;;;;;19.61;100.00;101388.56;10439151;28;20041;-81